Time;durP1;ratioP1;P1;durP2;ratioP2;P2;SDS_P1;SDS_P2;PMS_P1;PMS_P2;Temp;Humidity;BMP_temperature;BMP_pressure;BME280_temperature;BME280_humidity;BME280_pressure;Samples;Min_cycle;Max_cycle;Signal;HPM_P1;HPM_P2
2022/08/01 00:02:30;0.00;0.00;0.62;0.00;0.00;0.62;7.63;3.73;;;26.50;46.10;;;;;;2222539;62;20363;-62
2022/08/01 00:05:15;0.00;0.00;0.62;0.00;0.00;0.62;3.93;2.53;;;26.50;46.20;;;;;;2221789;62;20478;-60
2022/08/01 00:08:00;0.00;0.00;0.62;0.00;0.00;0.62;3.10;2.80;;;26.50;46.30;;;;;;2222292;62;20589;-61
2022/08/01 00:10:45;0.00;0.00;0.62;0.00;0.00;0.62;4.60;3.27;;;26.50;46.30;;;;;;2222583;62;20476;-62
2022/08/01 00:13:29;0.00;0.00;0.62;0.00;0.00;0.62;3.20;2.90;;;26.50;46.40;;;;;;2222185;62;20375;-62
2022/08/01 00:16:15;0.00;0.00;0.62;0.00;0.00;0.62;3.33;2.83;;;26.40;46.30;;;;;;2222334;62;20576;-62
2022/08/01 00:19:01;0.00;0.00;0.62;0.00;0.00;0.62;4.07;3.67;;;26.40;46.30;;;;;;2221450;62;20435;-61
2022/08/01 00:21:46;0.00;0.00;0.62;0.00;0.00;0.62;3.47;2.97;;;26.40;46.40;;;;;;2222301;62;20477;-62
2022/08/01 00:24:30;0.00;0.00;0.62;0.00;0.00;0.62;3.33;3.03;;;26.40;46.40;;;;;;2222562;62;20367;-62
2022/08/01 00:27:15;0.00;0.00;0.62;0.00;0.00;0.62;3.57;3.27;;;26.40;46.50;;;;;;2221582;62;20443;-61
2022/08/01 00:30:00;0.00;0.00;0.62;0.00;0.00;0.62;4.50;3.67;;;26.40;46.50;;;;;;2222016;62;20607;-61
2022/08/01 00:32:44;0.00;0.00;0.62;0.00;0.00;0.62;4.87;3.60;;;26.40;46.60;;;;;;2222565;62;20351;-62
2022/08/01 00:35:30;0.00;0.00;0.62;0.00;0.00;0.62;5.73;3.70;;;26.40;46.70;;;;;;2221381;62;20364;-61
2022/08/01 00:38:15;0.00;0.00;0.62;0.00;0.00;0.62;3.43;2.60;;;26.40;46.70;;;;;;2222230;62;20367;-62
2022/08/01 00:41:00;0.00;0.00;0.62;0.00;0.00;0.62;3.50;2.97;;;26.40;46.70;;;;;;2221686;62;20360;-61
2022/08/01 00:43:44;0.00;0.00;0.62;0.00;0.00;0.62;3.43;3.00;;;26.40;46.70;;;;;;2222043;62;20580;-61
2022/08/01 00:46:29;0.00;0.00;0.62;0.00;0.00;0.62;4.23;3.50;;;26.40;46.70;;;;;;2222269;62;20367;-63
2022/08/01 00:49:14;0.00;0.00;0.62;0.00;0.00;0.62;3.53;3.03;;;26.40;46.70;;;;;;2221470;62;20409;-62
2022/08/01 00:52:02;0.00;0.00;0.62;0.00;0.00;0.62;5.80;2.90;;;26.40;46.70;;;;;;2222131;62;20420;-62
2022/08/01 00:54:47;0.00;0.00;0.62;0.00;0.00;0.62;8.70;3.20;;;26.40;46.70;;;;;;2222323;62;20367;-62
2022/08/01 00:57:32;0.00;0.00;0.62;0.00;0.00;0.62;3.07;2.77;;;26.40;46.70;;;;;;2221692;62;20363;-62
2022/08/01 01:00:17;0.00;0.00;0.62;0.00;0.00;0.62;4.97;3.30;;;26.40;46.70;;;;;;2221830;62;20424;-60
2022/08/01 01:03:02;0.00;0.00;0.62;0.00;0.00;0.62;4.30;3.03;;;26.40;46.70;;;;;;2221621;62;20754;-61
2022/08/01 01:06:00;0.00;0.00;0.62;0.00;0.00;0.62;3.67;3.13;;;26.40;46.70;;;;;;2222008;62;20366;-62
2022/08/01 01:09:02;0.00;0.00;0.62;0.00;0.00;0.62;3.57;3.27;;;26.40;46.70;;;;;;2222068;62;20396;-60
2022/08/01 01:11:59;0.00;0.00;0.62;0.00;0.00;0.62;3.17;2.87;;;26.50;46.80;;;;;;2221580;62;20476;-61
2022/08/01 01:14:54;0.00;0.00;0.62;0.00;0.00;0.62;3.50;2.90;;;26.50;46.60;;;;;;2222207;62;20743;-62
2022/08/01 01:17:45;0.00;0.00;0.62;0.00;0.00;0.62;3.83;3.33;;;26.50;46.50;;;;;;2221735;62;20630;-61
2022/08/01 01:20:36;0.00;0.00;0.62;0.00;0.00;0.62;4.10;2.80;;;26.50;46.40;;;;;;2221839;62;20666;-61
2022/08/01 01:23:41;0.00;0.00;0.62;0.00;0.00;0.62;5.10;2.83;;;26.50;46.40;;;;;;2222204;62;20358;-61
2022/08/01 01:26:37;0.00;0.00;0.62;0.00;0.00;0.62;3.50;2.90;;;26.50;46.50;;;;;;2221485;62;20383;-61
2022/08/01 01:29:28;0.00;0.00;0.62;0.00;0.00;0.62;4.83;3.43;;;26.50;46.30;;;;;;2221964;62;20386;-61
2022/08/01 01:32:19;0.00;0.00;0.62;0.00;0.00;0.62;4.03;2.87;;;26.60;46.30;;;;;;2222339;62;20375;-62
2022/08/01 01:35:10;0.00;0.00;0.62;0.00;0.00;0.62;4.30;3.00;;;26.60;46.30;;;;;;2221935;62;20382;-61
2022/08/01 01:38:04;0.00;0.00;0.62;0.00;0.00;0.62;2.40;2.20;;;26.60;46.30;;;;;;2222118;62;20417;-62
2022/08/01 01:40:51;0.00;0.00;0.62;0.00;0.00;0.62;3.30;2.87;;;26.60;46.10;;;;;;2221408;62;20379;-62
2022/08/01 01:43:39;0.00;0.00;0.62;0.00;0.00;0.62;3.40;2.90;;;26.60;45.90;;;;;;2222191;62;20747;-62
2022/08/01 01:46:27;0.00;0.00;0.62;0.00;0.00;0.62;3.37;2.70;;;26.60;45.90;;;;;;2222196;62;20378;-62
2022/08/01 01:49:13;0.00;0.00;0.62;0.00;0.00;0.62;4.20;3.17;;;26.60;46.00;;;;;;2221297;62;20407;-63
2022/08/01 01:51:59;0.00;0.00;0.62;0.00;0.00;0.62;4.33;3.03;;;26.60;45.90;;;;;;2222298;62;20370;-62
2022/08/01 01:54:48;0.00;0.00;0.62;0.00;0.00;0.62;3.53;2.97;;;26.60;46.10;;;;;;2221469;62;20378;-62
2022/08/01 01:57:37;0.00;0.00;0.62;0.00;0.00;0.62;3.50;3.20;;;26.60;46.10;;;;;;2222672;62;20446;-61
2022/08/01 02:00:23;0.00;0.00;0.62;0.00;0.00;0.62;3.23;2.93;;;26.60;46.10;;;;;;2222968;62;20379;-61
2022/08/01 02:03:12;0.00;0.00;0.62;0.00;0.00;0.62;4.97;2.50;;;26.60;46.20;;;;;;2221888;62;20378;-61
2022/08/01 02:05:59;0.00;0.00;0.62;0.00;0.00;0.62;3.50;2.40;;;26.60;46.20;;;;;;2222609;62;20379;-61
2022/08/01 02:08:44;0.00;0.00;0.62;0.00;0.00;0.62;2.90;2.60;;;26.60;46.20;;;;;;2222766;62;20363;-62
2022/08/01 02:11:30;0.00;0.00;0.62;0.00;0.00;0.62;3.20;2.40;;;26.60;46.20;;;;;;2221853;62;20607;-62
2022/08/01 02:14:18;0.00;0.00;0.62;0.00;0.00;0.62;3.33;2.50;;;26.60;46.10;;;;;;2222957;62;20584;-62
2022/08/01 02:17:03;0.00;0.00;0.62;0.00;0.00;0.62;2.60;2.40;;;26.60;46.10;;;;;;2221994;62;20374;-62
2022/08/01 02:19:50;0.00;0.00;0.62;0.00;0.00;0.62;4.60;2.47;;;26.50;46.10;;;;;;2222281;62;20652;-62
2022/08/01 02:22:40;0.00;0.00;0.62;0.00;0.00;0.62;2.30;1.80;;;26.50;46.10;;;;;;2222876;62;20477;-62
2022/08/01 02:25:32;0.00;0.00;0.62;0.00;0.00;0.62;4.70;1.73;;;26.50;46.80;;;;;;2222127;62;20649;-62
2022/08/01 02:28:27;0.00;0.00;0.62;0.00;0.00;0.62;3.57;2.37;;;26.50;46.10;;;;;;2222517;62;20447;-62
2022/08/01 02:31:16;0.00;0.00;0.62;0.00;0.00;0.62;2.53;2.23;;;26.50;46.00;;;;;;2222636;62;20726;-60
2022/08/01 02:34:05;0.00;0.00;0.62;0.00;0.00;0.62;3.30;1.97;;;26.50;46.10;;;;;;2222191;62;20407;-62
2022/08/01 02:36:54;0.00;0.00;0.62;0.00;0.00;0.62;3.27;1.70;;;26.50;46.10;;;;;;2222686;62;20366;-61
2022/08/01 02:39:39;0.00;0.00;0.62;0.00;0.00;0.62;2.23;2.00;;;26.50;46.10;;;;;;2221916;62;20504;-62
2022/08/01 02:42:29;0.00;0.00;0.62;0.00;0.00;0.62;2.10;1.90;;;26.50;46.90;;;;;;2222610;62;20390;-62
2022/08/01 02:45:17;0.00;0.00;0.62;0.00;0.00;0.62;2.40;2.20;;;26.50;46.10;;;;;;2222652;62;20765;-62
2022/08/01 02:48:09;0.00;0.00;0.62;0.00;0.00;0.62;2.23;2.03;;;26.40;46.00;;;;;;2221808;62;20461;-62
2022/08/01 02:50:58;0.00;0.00;0.62;0.00;0.00;0.62;2.30;1.80;;;26.40;46.00;;;;;;2222575;62;20399;-63
2022/08/01 02:53:45;0.00;0.00;0.62;0.00;0.00;0.62;2.40;2.10;;;26.40;46.10;;;;;;2222716;62;20408;-62
2022/08/01 02:56:34;0.00;0.00;0.62;0.00;0.00;0.62;1.87;1.67;;;26.40;46.10;;;;;;2222470;62;20374;-62
2022/08/01 02:59:25;0.00;0.00;0.62;0.00;0.00;0.62;2.53;2.00;;;26.40;46.10;;;;;;2222551;62;20387;-62
2022/08/01 03:02:11;0.00;0.00;0.62;0.00;0.00;0.62;2.50;2.00;;;26.40;46.10;;;;;;2222070;62;20822;-61
2022/08/01 03:04:59;0.00;0.00;0.62;0.00;0.00;0.62;2.30;1.90;;;26.40;46.10;;;;;;2222484;62;20367;-63
2022/08/01 03:07:44;0.00;0.00;0.62;0.00;0.00;0.62;2.37;2.00;;;26.40;46.10;;;;;;2222428;62;20428;-62
2022/08/01 03:10:33;0.00;0.00;0.62;0.00;0.00;0.62;3.50;2.17;;;26.40;46.20;;;;;;2221839;62;20407;-62
2022/08/01 03:13:20;0.00;0.00;0.62;0.00;0.00;0.62;3.10;1.53;;;26.40;46.20;;;;;;2222606;62;20379;-62
2022/08/01 03:16:05;0.00;0.00;0.62;0.00;0.00;0.62;2.60;1.70;;;26.40;46.20;;;;;;2221939;62;20464;-63
2022/08/01 03:18:52;0.00;0.00;0.62;0.00;0.00;0.62;2.43;1.70;;;26.30;46.10;;;;;;2222235;62;20455;-61
2022/08/01 03:21:38;0.00;0.00;0.62;0.00;0.00;0.62;3.87;1.70;;;26.40;46.20;;;;;;2222651;62;20362;-61
2022/08/01 03:24:27;0.00;0.00;0.62;0.00;0.00;0.62;2.30;1.63;;;26.40;46.20;;;;;;2221717;62;20489;-61
2022/08/01 03:27:14;0.00;0.00;0.62;0.00;0.00;0.62;2.80;1.80;;;26.40;46.10;;;;;;2222412;62;20390;-62
2022/08/01 03:30:04;0.00;0.00;0.62;0.00;0.00;0.62;1.97;1.60;;;26.40;46.10;;;;;;2222443;62;20399;-62
2022/08/01 03:32:49;0.00;0.00;0.62;0.00;0.00;0.62;1.80;1.50;;;26.40;46.10;;;;;;2221732;62;20420;-62
2022/08/01 03:35:41;0.00;0.00;0.62;0.00;0.00;0.62;2.40;1.60;;;26.40;46.00;;;;;;2222504;62;20602;-61
2022/08/01 03:38:30;0.00;0.00;0.62;0.00;0.00;0.62;2.07;1.87;;;26.40;46.00;;;;;;2221664;62;20367;-62
2022/08/01 03:41:20;0.00;0.00;0.62;0.00;0.00;0.62;2.00;1.40;;;26.40;46.00;;;;;;2222327;62;20359;-62
2022/08/01 03:44:14;0.00;0.00;0.62;0.00;0.00;0.62;1.87;1.47;;;26.40;46.00;;;;;;2222642;62;20362;-62
2022/08/01 03:47:03;0.00;0.00;0.62;0.00;0.00;0.62;1.83;1.60;;;26.40;46.00;;;;;;2221713;62;20371;-62
2022/08/01 03:49:52;0.00;0.00;0.62;0.00;0.00;0.62;2.20;1.80;;;26.40;46.00;;;;;;2222114;62;20383;-62
2022/08/01 03:52:39;0.00;0.00;0.62;0.00;0.00;0.62;1.50;1.20;;;26.40;46.00;;;;;;2222209;62;20375;-61
2022/08/01 03:55:25;0.00;0.00;0.62;0.00;0.00;0.62;1.73;1.30;;;26.40;45.90;;;;;;2221714;62;20371;-61
2022/08/01 03:58:11;0.00;0.00;0.62;0.00;0.00;0.62;2.00;1.43;;;26.40;46.00;;;;;;2222495;62;20394;-62
2022/08/01 04:00:58;0.00;0.00;0.62;0.00;0.00;0.62;1.40;1.10;;;26.40;45.90;;;;;;2221716;62;20776;-62
2022/08/01 04:03:44;0.00;0.00;0.62;0.00;0.00;0.62;2.00;1.47;;;26.40;45.90;;;;;;2222236;62;20371;-61
2022/08/01 04:06:29;0.00;0.00;0.62;0.00;0.00;0.62;1.70;1.40;;;26.30;45.90;;;;;;2222476;62;20359;-62
2022/08/01 04:09:14;0.00;0.00;0.62;0.00;0.00;0.62;1.90;1.30;;;26.30;45.90;;;;;;2221604;62;20413;-63
2022/08/01 04:12:00;0.00;0.00;0.62;0.00;0.00;0.62;2.03;1.40;;;26.30;45.90;;;;;;2222343;62;20402;-62
2022/08/01 04:14:45;0.00;0.00;0.62;0.00;0.00;0.62;2.00;1.57;;;26.30;46.00;;;;;;2222547;62;20375;-61
2022/08/01 04:17:32;0.00;0.00;0.62;0.00;0.00;0.62;2.53;2.23;;;26.30;46.00;;;;;;2221405;62;20711;-62
2022/08/01 04:20:17;0.00;0.00;0.62;0.00;0.00;0.62;3.40;2.03;;;26.30;46.00;;;;;;2222505;62;20435;-62
2022/08/01 04:23:02;0.00;0.00;0.62;0.00;0.00;0.62;2.73;2.53;;;26.30;46.00;;;;;;2221719;62;20366;-62
2022/08/01 04:25:50;0.00;0.00;0.62;0.00;0.00;0.62;3.13;2.67;;;26.30;46.10;;;;;;2222152;62;20397;-62
2022/08/01 04:28:36;0.00;0.00;0.62;0.00;0.00;0.62;3.73;2.87;;;26.30;46.10;;;;;;2222291;62;20457;-62
2022/08/01 04:31:25;0.00;0.00;0.62;0.00;0.00;0.62;3.40;3.00;;;26.30;46.10;;;;;;2221513;62;20458;-62
2022/08/01 04:34:14;0.00;0.00;0.62;0.00;0.00;0.62;2.90;2.60;;;26.20;46.70;;;;;;2222264;62;20376;-62
2022/08/01 04:37:00;0.00;0.00;0.62;0.00;0.00;0.62;3.87;3.53;;;26.20;46.00;;;;;;2222409;62;20375;-62
2022/08/01 04:39:46;0.00;0.00;0.62;0.00;0.00;0.62;5.13;3.50;;;26.20;46.10;;;;;;2221455;62;20387;-61
2022/08/01 04:42:32;0.00;0.00;0.62;0.00;0.00;0.62;3.70;2.90;;;26.20;46.10;;;;;;2222507;62;20396;-63
2022/08/01 04:45:18;0.00;0.00;0.62;0.00;0.00;0.62;3.20;2.80;;;26.30;46.20;;;;;;2221683;62;20459;-61
2022/08/01 04:48:09;0.00;0.00;0.62;0.00;0.00;0.62;3.47;3.17;;;26.20;46.10;;;;;;2222033;62;20413;-61
2022/08/01 04:50:55;0.00;0.00;0.62;0.00;0.00;0.62;4.13;3.27;;;26.20;46.10;;;;;;2222280;62;20466;-62
2022/08/01 04:53:39;0.00;0.00;0.62;0.00;0.00;0.62;3.97;2.50;;;26.20;46.10;;;;;;2221598;62;20501;-62
2022/08/01 04:56:24;0.00;0.00;0.62;0.00;0.00;0.62;3.13;2.80;;;26.20;46.10;;;;;;2222104;62;20420;-62
2022/08/01 05:02:15;0.00;0.00;0.62;0.00;0.00;0.62;2.90;2.43;;;26.20;46.10;;;;;;2222227;62;20362;-62
2022/08/01 05:05:00;0.00;0.00;0.62;0.00;0.00;0.62;2.47;1.97;;;26.20;46.20;;;;;;2222355;62;20485;-62
2022/08/01 05:07:46;0.00;0.00;0.62;0.00;0.00;0.62;2.87;2.17;;;26.20;46.30;;;;;;2221323;62;20394;-61
2022/08/01 05:10:31;0.00;0.00;0.62;0.00;0.00;0.62;2.50;2.20;;;26.20;46.30;;;;;;2221778;62;20771;-62
2022/08/01 05:13:16;0.00;0.00;0.62;0.00;0.00;0.62;3.37;2.00;;;26.20;46.30;;;;;;2222362;62;20363;-62
2022/08/01 05:16:03;0.00;0.00;0.62;0.00;0.00;0.62;3.67;2.23;;;26.20;46.30;;;;;;2221499;62;20363;-61
2022/08/01 05:18:48;0.00;0.00;0.62;0.00;0.00;0.62;2.63;2.07;;;26.20;46.30;;;;;;2221868;62;20778;-63
2022/08/01 05:21:33;0.00;0.00;0.62;0.00;0.00;0.62;4.13;2.33;;;26.20;46.30;;;;;;2222274;62;20370;-72
2022/08/01 05:24:19;0.00;0.00;0.62;0.00;0.00;0.62;2.77;2.47;;;26.20;46.30;;;;;;2221977;62;20371;-71
2022/08/01 05:27:04;0.00;0.00;0.62;0.00;0.00;0.62;2.87;2.20;;;26.20;46.40;;;;;;2222244;62;20727;-69
2022/08/01 05:29:49;0.00;0.00;0.62;0.00;0.00;0.62;2.70;1.87;;;26.20;46.40;;;;;;2221395;62;20845;-71
2022/08/01 05:32:34;0.00;0.00;0.62;0.00;0.00;0.62;2.47;2.00;;;26.20;46.40;;;;;;2222104;62;20371;-74
2022/08/01 05:35:19;0.00;0.00;0.62;0.00;0.00;0.62;2.63;2.43;;;26.20;46.30;;;;;;2222165;62;20367;-72
2022/08/01 05:38:03;0.00;0.00;0.62;0.00;0.00;0.62;3.07;2.40;;;26.20;46.30;;;;;;2221462;62;20722;-71
2022/08/01 05:40:49;0.00;0.00;0.62;0.00;0.00;0.62;2.30;2.10;;;26.20;46.40;;;;;;2222252;62;20746;-76
2022/08/01 05:43:34;0.00;0.00;0.62;0.00;0.00;0.62;2.17;1.87;;;26.20;46.40;;;;;;2222353;62;20382;-73
2022/08/01 05:46:19;0.00;0.00;0.62;0.00;0.00;0.62;2.23;1.57;;;26.20;46.40;;;;;;2221295;62;20727;-72
2022/08/01 05:49:05;0.00;0.00;0.62;0.00;0.00;0.62;2.50;2.30;;;26.20;46.40;;;;;;2221738;62;20390;-69
2022/08/01 05:51:49;0.00;0.00;0.62;0.00;0.00;0.62;3.10;1.60;;;26.20;46.40;;;;;;2221452;62;20438;-75
2022/08/01 05:54:34;0.00;0.00;0.62;0.00;0.00;0.62;2.27;1.80;;;26.20;46.50;;;;;;2222144;62;20704;-69
2022/08/01 05:57:20;0.00;0.00;0.62;0.00;0.00;0.62;2.50;2.27;;;26.20;46.50;;;;;;2222251;62;20395;-73
2022/08/01 06:00:07;0.00;0.00;0.62;0.00;0.00;0.62;1.80;1.53;;;26.20;46.40;;;;;;2221782;62;20394;-67
2022/08/01 06:02:56;0.00;0.00;0.62;0.00;0.00;0.62;2.53;2.23;;;26.20;46.40;;;;;;2222073;62;20374;-67
2022/08/01 06:05:41;0.00;0.00;0.62;0.00;0.00;0.62;2.60;2.00;;;26.30;46.50;;;;;;2222210;62;20367;-68
2022/08/01 06:08:26;0.00;0.00;0.62;0.00;0.00;0.62;2.20;1.83;;;26.30;46.50;;;;;;2221130;62;20758;-68
2022/08/01 06:11:13;0.00;0.00;0.62;0.00;0.00;0.62;2.80;2.10;;;26.30;46.50;;;;;;2222103;62;20444;-70
2022/08/01 06:13:59;0.00;0.00;0.62;0.00;0.00;0.62;2.70;2.40;;;26.30;46.60;;;;;;2221011;62;20443;-69
2022/08/01 06:16:43;0.00;0.00;0.62;0.00;0.00;0.62;3.03;2.20;;;26.30;46.50;;;;;;2221959;62;20375;-71
2022/08/01 06:19:28;0.00;0.00;0.62;0.00;0.00;0.62;2.37;1.87;;;26.30;46.50;;;;;;2222007;62;20434;-72
2022/08/01 06:22:13;0.00;0.00;0.62;0.00;0.00;0.62;3.00;2.70;;;26.30;46.50;;;;;;2221418;62;20416;-73
2022/08/01 06:24:58;0.00;0.00;0.62;0.00;0.00;0.62;3.63;2.17;;;26.30;46.50;;;;;;2221988;62;20371;-73
2022/08/01 06:27:43;0.00;0.00;0.62;0.00;0.00;0.62;2.93;2.10;;;26.30;46.50;;;;;;2221570;62;20761;-70
2022/08/01 06:30:29;0.00;0.00;0.62;0.00;0.00;0.62;2.57;2.00;;;26.30;46.50;;;;;;2220859;62;20403;-73
2022/08/01 06:33:13;0.00;0.00;0.62;0.00;0.00;0.62;2.87;2.30;;;26.40;46.60;;;;;;2222244;62;20379;-68
2022/08/01 06:35:58;0.00;0.00;0.62;0.00;0.00;0.62;2.13;1.70;;;26.40;46.50;;;;;;2221165;62;20495;-68
2022/08/01 06:38:43;0.00;0.00;0.62;0.00;0.00;0.62;2.07;1.50;;;26.40;46.40;;;;;;2221425;62;20363;-71
2022/08/01 06:41:27;0.00;0.00;0.62;0.00;0.00;0.62;2.53;2.20;;;26.50;46.30;;;;;;2222235;62;20396;-72
2022/08/01 06:44:12;0.00;0.00;0.62;0.00;0.00;0.62;1.80;1.40;;;26.50;46.20;;;;;;2221966;62;20367;-74
2022/08/01 06:46:58;0.00;0.00;0.62;0.00;0.00;0.62;2.50;1.73;;;26.50;46.10;;;;;;2222537;62;20386;-73
2022/08/01 06:49:44;0.00;0.00;0.62;0.00;0.00;0.62;2.10;1.70;;;26.50;46.00;;;;;;2222195;62;20390;-75
2022/08/01 06:52:28;0.00;0.00;0.62;0.00;0.00;0.62;3.60;2.10;;;26.50;46.00;;;;;;2222179;62;20359;-72
2022/08/01 06:55:13;0.00;0.00;0.62;0.00;0.00;0.62;3.10;1.80;;;26.50;45.90;;;;;;2222767;62;20371;-72
2022/08/01 06:57:59;0.00;0.00;0.62;0.00;0.00;0.62;2.50;2.30;;;26.50;45.70;;;;;;2222243;62;20374;-71
2022/08/01 07:00:43;0.00;0.00;0.62;0.00;0.00;0.62;2.40;2.00;;;26.60;45.80;;;;;;2222474;62;20382;-71
2022/08/01 07:03:30;0.00;0.00;0.62;0.00;0.00;0.62;2.50;1.87;;;26.60;45.80;;;;;;2222705;62;20371;-68
2022/08/01 07:06:15;0.00;0.00;0.62;0.00;0.00;0.62;2.63;1.87;;;26.60;45.60;;;;;;2221907;62;20394;-71
2022/08/01 07:09:01;0.00;0.00;0.62;0.00;0.00;0.62;2.27;1.93;;;26.60;45.60;;;;;;2222242;62;20416;-73
2022/08/01 07:11:46;0.00;0.00;0.62;0.00;0.00;0.62;3.00;2.27;;;26.70;45.60;;;;;;2222602;62;20424;-70
2022/08/01 07:14:30;0.00;0.00;0.62;0.00;0.00;0.62;4.27;2.50;;;26.70;45.60;;;;;;2221846;62;20440;-71
2022/08/01 07:17:15;0.00;0.00;0.62;0.00;0.00;0.62;2.47;1.80;;;26.80;45.50;;;;;;2222552;62;20375;-68
2022/08/01 07:20:01;0.00;0.00;0.62;0.00;0.00;0.62;3.03;2.60;;;26.80;45.50;;;;;;2222531;62;20509;-69
2022/08/01 07:22:46;0.00;0.00;0.62;0.00;0.00;0.62;1.97;1.70;;;26.80;45.40;;;;;;2222448;62;20375;-69
2022/08/01 07:25:31;0.00;0.00;0.62;0.00;0.00;0.62;2.20;2.00;;;26.90;45.40;;;;;;2222611;62;20379;-71
2022/08/01 07:28:16;0.00;0.00;0.62;0.00;0.00;0.62;2.40;2.10;;;26.90;45.40;;;;;;2221942;62;20400;-67
2022/08/01 07:31:00;0.00;0.00;0.62;0.00;0.00;0.62;1.97;1.77;;;26.90;45.30;;;;;;2221997;62;20452;-66
2022/08/01 07:33:45;0.00;0.00;0.62;0.00;0.00;0.62;2.47;1.93;;;27.00;45.20;;;;;;2222727;62;20489;-69
2022/08/01 07:36:32;0.00;0.00;0.62;0.00;0.00;0.62;2.27;1.63;;;27.00;45.10;;;;;;2221838;62;20387;-67
2022/08/01 07:39:16;0.00;0.00;0.62;0.00;0.00;0.62;4.30;1.70;;;27.00;45.00;;;;;;2222359;62;20390;-69
2022/08/01 07:42:01;0.00;0.00;0.62;0.00;0.00;0.62;2.33;1.80;;;27.00;45.00;;;;;;2222647;62;20603;-67
2022/08/01 07:44:46;0.00;0.00;0.62;0.00;0.00;0.62;4.30;1.50;;;27.00;44.70;;;;;;2221958;62;20405;-67
2022/08/01 07:47:31;0.00;0.00;0.62;0.00;0.00;0.62;2.00;1.50;;;27.00;44.70;;;;;;2222530;62;20461;-67
2022/08/01 07:50:16;0.00;0.00;0.62;0.00;0.00;0.62;1.80;1.57;;;27.00;44.50;;;;;;2221829;62;20407;-68
2022/08/01 07:53:04;0.00;0.00;0.62;0.00;0.00;0.62;2.23;1.90;;;27.10;44.60;;;;;;2222032;62;20416;-67
2022/08/01 07:55:49;0.00;0.00;0.62;0.00;0.00;0.62;1.63;1.30;;;27.10;44.40;;;;;;2222571;62;20377;-68
2022/08/01 07:58:34;0.00;0.00;0.62;0.00;0.00;0.62;1.90;1.47;;;27.10;44.30;;;;;;2221379;62;20402;-67
2022/08/01 08:01:19;0.00;0.00;0.62;0.00;0.00;0.62;2.07;1.67;;;27.20;44.40;;;;;;2222327;62;20593;-67
2022/08/01 08:04:04;0.00;0.00;0.62;0.00;0.00;0.62;2.10;1.70;;;27.20;44.30;;;;;;2222598;62;20416;-67
2022/08/01 08:06:49;0.00;0.00;0.62;0.00;0.00;0.62;2.23;2.03;;;27.20;44.20;;;;;;2221732;62;20367;-68
2022/08/01 08:09:35;0.00;0.00;0.62;0.00;0.00;0.62;2.60;1.90;;;27.20;44.00;;;;;;2222297;62;20399;-67
2022/08/01 08:12:20;0.00;0.00;0.62;0.00;0.00;0.62;2.70;2.30;;;27.20;43.90;;;;;;2221876;62;20794;-69
2022/08/01 08:15:06;0.00;0.00;0.62;0.00;0.00;0.62;5.10;2.83;;;27.20;43.90;;;;;;2222406;62;20364;-69
2022/08/01 08:17:51;0.00;0.00;0.62;0.00;0.00;0.62;2.77;2.57;;;27.20;43.80;;;;;;2222328;62;20375;-68
2022/08/01 08:20:35;0.00;0.00;0.62;0.00;0.00;0.62;2.90;2.60;;;27.30;43.80;;;;;;2221643;62;20398;-69
2022/08/01 08:26:26;0.00;0.00;0.62;0.00;0.00;0.62;2.83;2.63;;;27.30;43.70;;;;;;2222422;62;20371;-68
2022/08/01 08:29:11;0.00;0.00;0.62;0.00;0.00;0.62;3.00;2.70;;;27.30;43.60;;;;;;2221551;62;20674;-65
2022/08/01 08:31:56;0.00;0.00;0.62;0.00;0.00;0.62;2.60;2.27;;;27.30;43.50;;;;;;2222492;62;20447;-68
2022/08/01 08:34:41;0.00;0.00;0.62;0.00;0.00;0.62;3.23;2.80;;;27.30;43.40;;;;;;2221544;62;20370;-74
2022/08/01 08:37:26;0.00;0.00;0.62;0.00;0.00;0.62;3.20;2.83;;;27.30;43.20;;;;;;2222077;62;20405;-71
2022/08/01 08:40:11;0.00;0.00;0.62;0.00;0.00;0.62;4.00;2.87;;;27.30;42.90;;;;;;2222516;62;20666;-70
2022/08/01 08:42:59;0.00;0.00;0.62;0.00;0.00;0.62;3.83;2.00;;;27.30;43.00;;;;;;2221543;62;20520;-69
2022/08/01 08:45:45;0.00;0.00;0.62;0.00;0.00;0.62;4.17;2.07;;;27.30;43.00;;;;;;2222202;62;20391;-69
2022/08/01 08:48:31;0.00;0.00;0.62;0.00;0.00;0.62;2.63;1.83;;;27.30;43.00;;;;;;2222331;62;20744;-73
2022/08/01 08:51:18;0.00;0.00;0.62;0.00;0.00;0.62;4.53;2.10;;;27.30;43.00;;;;;;2221241;62;20485;-69
2022/08/01 08:54:05;0.00;0.00;0.62;0.00;0.00;0.62;4.00;2.63;;;27.30;42.90;;;;;;2222111;62;20830;-69
2022/08/01 08:56:51;0.00;0.00;0.62;0.00;0.00;0.62;1.90;1.70;;;27.30;42.90;;;;;;2221698;62;20569;-69
2022/08/01 08:59:39;0.00;0.00;0.62;0.00;0.00;0.62;2.50;1.67;;;27.30;42.90;;;;;;2221868;62;20658;-68
2022/08/01 09:02:23;0.00;0.00;0.62;0.00;0.00;0.62;2.63;1.50;;;27.30;42.80;;;;;;2222477;62;20716;-69
2022/08/01 09:05:09;0.00;0.00;0.62;0.00;0.00;0.62;2.00;1.50;;;27.30;42.70;;;;;;2221499;62;20427;-72
2022/08/01 09:07:54;0.00;0.00;0.62;0.00;0.00;0.62;2.53;1.20;;;27.40;42.60;;;;;;2222017;62;20447;-66
2022/08/01 09:10:39;0.00;0.00;0.62;0.00;0.00;0.62;2.53;1.67;;;27.40;42.50;;;;;;2222270;62;20634;-72
2022/08/01 09:13:24;0.00;0.00;0.62;0.00;0.00;0.62;2.30;1.53;;;27.40;42.50;;;;;;2221516;62;20792;-71
2022/08/01 09:16:19;0.00;0.00;0.62;0.00;0.00;0.62;2.07;1.33;;;27.40;42.40;;;;;;2224754;62;20374;-69
2022/08/01 09:19:10;0.00;0.00;0.62;0.00;0.00;0.62;3.70;1.50;;;27.40;42.30;;;;;;2220854;62;20404;-67
2022/08/01 09:21:58;0.00;0.00;0.62;0.00;0.00;0.62;2.40;1.43;;;27.40;42.20;;;;;;2222211;62;20367;-68
2022/08/01 09:24:57;0.00;0.00;0.62;0.00;0.00;0.62;1.83;1.10;;;27.40;42.10;;;;;;2222239;62;20715;-72
2022/08/01 09:27:42;0.00;0.00;0.62;0.00;0.00;0.62;1.93;1.40;;;27.40;42.10;;;;;;2221342;62;20463;-68
2022/08/01 09:30:27;0.00;0.00;0.62;0.00;0.00;0.62;1.60;1.30;;;27.40;42.00;;;;;;2222238;62;20402;-67
2022/08/01 09:33:13;0.00;0.00;0.62;0.00;0.00;0.62;2.30;1.23;;;27.40;41.90;;;;;;2222169;62;20422;-67
2022/08/01 09:35:58;0.00;0.00;0.62;0.00;0.00;0.62;2.13;1.30;;;27.40;41.90;;;;;;2222050;62;20707;-70
2022/08/01 09:38:42;0.00;0.00;0.62;0.00;0.00;0.62;2.90;1.80;;;27.40;41.80;;;;;;2222148;62;20394;-69
2022/08/01 09:41:31;0.00;0.00;0.62;0.00;0.00;0.62;3.23;1.53;;;27.40;41.70;;;;;;2220962;62;20715;-69
2022/08/01 09:44:18;0.00;0.00;0.62;0.00;0.00;0.62;2.33;1.80;;;27.50;41.70;;;;;;2222053;62;20445;-70
2022/08/01 09:47:03;0.00;0.00;0.62;0.00;0.00;0.62;3.30;2.60;;;27.40;41.50;;;;;;2218699;62;20377;-73
2022/08/01 09:49:57;0.00;0.00;0.62;0.00;0.00;0.62;2.43;2.23;;;27.50;41.60;;;;;;2218658;62;20440;-67
2022/08/01 09:52:52;0.00;0.00;0.62;0.00;0.00;0.62;3.63;2.40;;;27.50;41.60;;;;;;2221965;62;20603;-65
2022/08/01 09:55:38;0.00;0.00;0.62;0.00;0.00;0.62;4.30;2.53;;;27.50;41.60;;;;;;2221669;62;20359;-71
2022/08/01 09:58:23;0.00;0.00;0.62;0.00;0.00;0.62;4.00;2.67;;;27.50;41.60;;;;;;2221799;62;20358;-67
2022/08/01 10:01:08;0.00;0.00;0.62;0.00;0.00;0.62;3.10;2.80;;;27.50;41.60;;;;;;2222069;62;20422;-67
2022/08/01 10:04:10;0.00;0.00;0.62;0.00;0.00;0.62;4.30;3.03;;;27.50;41.60;;;;;;2220361;62;20371;-65
2022/08/01 10:07:06;0.00;0.00;0.62;0.00;0.00;0.62;3.40;3.10;;;27.50;41.60;;;;;;2222004;62;20383;-68
2022/08/01 10:09:51;0.00;0.00;0.62;0.00;0.00;0.62;3.97;2.93;;;27.50;41.60;;;;;;2221835;62;20455;-67
2022/08/01 10:12:39;0.00;0.00;0.62;0.00;0.00;0.62;3.20;2.90;;;27.50;41.50;;;;;;2221197;62;20406;-68
2022/08/01 10:15:26;0.00;0.00;0.62;0.00;0.00;0.62;3.20;2.77;;;27.60;41.30;;;;;;2222343;62;20363;-68
2022/08/01 10:18:11;0.00;0.00;0.62;0.00;0.00;0.62;6.13;2.60;;;27.60;41.10;;;;;;2222089;62;20744;-67
2022/08/01 10:20:57;0.00;0.00;0.62;0.00;0.00;0.62;4.10;2.83;;;27.60;41.20;;;;;;2222524;62;20371;-67
2022/08/01 10:23:44;0.00;0.00;0.62;0.00;0.00;0.62;3.00;2.70;;;27.60;41.10;;;;;;2222729;62;20370;-66
2022/08/01 10:26:33;0.00;0.00;0.62;0.00;0.00;0.62;4.83;3.30;;;27.60;40.90;;;;;;2222295;62;20367;-66
2022/08/01 10:29:20;0.00;0.00;0.62;0.00;0.00;0.62;3.47;2.87;;;27.60;40.80;;;;;;2222190;62;20424;-64
2022/08/01 10:32:09;0.00;0.00;0.62;0.00;0.00;0.62;4.40;3.27;;;27.60;40.70;;;;;;2222693;62;20390;-66
2022/08/01 10:34:56;0.00;0.00;0.62;0.00;0.00;0.62;3.90;3.60;;;27.60;40.80;;;;;;2221968;62;20435;-71
2022/08/01 10:37:42;0.00;0.00;0.62;0.00;0.00;0.62;4.40;3.30;;;27.60;40.70;;;;;;2222339;62;20734;-64
2022/08/01 10:40:29;0.00;0.00;0.62;0.00;0.00;0.62;3.90;3.30;;;27.70;40.80;;;;;;2222088;62;20662;-63
2022/08/01 10:43:16;0.00;0.00;0.62;0.00;0.00;0.62;5.17;2.73;;;27.60;40.80;;;;;;2222342;62;20372;-64
2022/08/01 10:46:01;0.00;0.00;0.62;0.00;0.00;0.62;3.20;2.70;;;27.70;40.80;;;;;;2222066;62;20371;-64
2022/08/01 10:48:55;0.00;0.00;0.62;0.00;0.00;0.62;4.60;2.97;;;27.60;40.60;;;;;;2221925;62;20391;-64
2022/08/01 10:51:42;0.00;0.00;0.62;0.00;0.00;0.62;2.43;2.23;;;27.60;40.20;;;;;;2222229;62;20441;-63
2022/08/01 10:54:27;0.00;0.00;0.62;0.00;0.00;0.62;3.33;2.20;;;27.60;40.30;;;;;;2222650;62;20378;-62
2022/08/01 10:57:14;0.00;0.00;0.62;0.00;0.00;0.62;3.17;2.13;;;27.60;40.30;;;;;;2221920;62;20735;-64
2022/08/01 11:00:01;0.00;0.00;0.62;0.00;0.00;0.62;4.97;2.60;;;27.70;40.20;;;;;;2222488;62;20739;-64
2022/08/01 11:03:00;0.00;0.00;0.62;0.00;0.00;0.62;5.07;2.20;;;27.60;40.10;;;;;;2221926;62;20590;-64
2022/08/01 11:05:52;0.00;0.00;0.62;0.00;0.00;0.62;2.23;2.03;;;27.60;40.00;;;;;;2222340;62;20443;-63